Time,TemperatureF,DewpointF,PressureIn,WindDirection,WindDirectionDegrees,WindSpeedMPH,WindSpeedGustMPH,Humidity,HourlyPrecipIn,Conditions,Clouds,dailyrainin,SoftwareType,DateUTC
2014-04-18 00:13:00,55.4,47.3,29.76,ENE,67,0.0,-999.0,74,-99.99,,,0.00,Acu-Link.com,2014-04-18 07:13:00,
2014-04-18 00:28:00,55.2,47.4,29.76,West,270,3.7,-999.0,75,-99.99,,,0.00,Acu-Link.com,2014-04-18 07:28:00,
2014-04-18 00:44:00,55.9,48.4,29.76,West,270,5.3,-999.0,76,-99.99,,,0.00,Acu-Link.com,2014-04-18 07:44:00,
2014-04-18 00:59:00,55.2,47.8,29.76,NNE,22,3.2,-999.0,76,-99.99,,,0.00,Acu-Link.com,2014-04-18 07:59:00,
2014-04-18 01:14:00,54.3,46.9,29.76,SW,225,1.7,-999.0,76,-99.99,,,0.00,Acu-Link.com,2014-04-18 08:14:00,
2014-04-18 01:29:00,53.4,46.0,29.76,NNW,337,0.0,-999.0,76,-99.99,,,0.00,Acu-Link.com,2014-04-18 08:29:00,
2014-04-18 01:44:00,52.5,45.8,29.76,WSW,247,0.0,-999.0,78,-99.99,,,0.00,Acu-Link.com,2014-04-18 08:44:00,
2014-04-18 01:59:00,51.3,45.3,29.76,NW,315,0.0,-999.0,80,-99.99,,,0.00,Acu-Link.com,2014-04-18 08:59:00,
2014-04-18 02:14:00,50.0,44.4,29.75,NW,315,0.0,-999.0,81,-99.99,,,0.00,Acu-Link.com,2014-04-18 09:14:00,
2014-04-18 02:29:00,49.3,44.4,29.76,SW,225,0.0,-999.0,83,-99.99,,,0.00,Acu-Link.com,2014-04-18 09:29:00,
2014-04-18 02:44:00,48.6,44.3,29.75,SW,225,0.0,-999.0,85,-99.99,,,0.00,Acu-Link.com,2014-04-18 09:44:00,
2014-04-18 02:59:00,48.2,44.5,29.76,SW,225,0.0,-999.0,87,-99.99,,,0.00,Acu-Link.com,2014-04-18 09:59:00,
2014-04-18 03:15:00,47.8,44.1,29.76,WSW,247,0.0,-999.0,87,-99.99,,,0.00,Acu-Link.com,2014-04-18 10:15:00,
2014-04-18 03:30:00,47.8,44.4,29.75,NNE,22,0.0,-999.0,88,-99.99,,,0.00,Acu-Link.com,2014-04-18 10:30:00,
2014-04-18 03:45:00,47.7,44.3,29.75,WSW,247,0.0,-999.0,88,-99.99,,,0.00,Acu-Link.com,2014-04-18 10:45:00,
2014-04-18 04:00:00,47.1,43.7,29.76,East,90,0.0,-999.0,88,-99.99,,,0.00,Acu-Link.com,2014-04-18 11:00:00,
2014-04-18 04:15:00,47.5,44.7,29.76,SW,225,1.1,-999.0,90,-99.99,,,0.00,Acu-Link.com,2014-04-18 11:15:00,
2014-04-18 04:30:00,47.7,44.9,29.75,WNW,292,0.0,-999.0,90,-99.99,,,0.00,Acu-Link.com,2014-04-18 11:30:00,
2014-04-18 04:45:00,47.3,44.8,29.76,WSW,247,0.0,-999.0,91,-99.99,,,0.00,Acu-Link.com,2014-04-18 11:45:00,
2014-04-18 05:00:00,46.8,44.0,29.76,West,270,0.0,-999.0,90,-99.99,,,0.00,Acu-Link.com,2014-04-18 12:00:00,
2014-04-18 05:15:00,46.4,43.6,29.77,West,270,0.0,-999.0,90,-99.99,,,0.00,Acu-Link.com,2014-04-18 12:15:00,
2014-04-18 05:31:00,46.0,43.5,29.76,West,270,0.0,-999.0,91,-99.99,,,0.00,Acu-Link.com,2014-04-18 12:31:00,
2014-04-18 05:46:00,46.0,43.5,29.77,West,270,0.0,-999.0,91,-99.99,,,0.00,Acu-Link.com,2014-04-18 12:46:00,
2014-04-18 06:01:00,45.9,43.7,29.77,WNW,292,0.0,-999.0,92,-99.99,,,0.00,Acu-Link.com,2014-04-18 13:01:00,
2014-04-18 06:16:00,45.7,43.5,29.77,NNW,337,0.0,-999.0,92,-99.99,,,0.00,Acu-Link.com,2014-04-18 13:16:00,
2014-04-18 06:31:00,45.7,43.5,29.77,NW,315,0.0,-999.0,92,-99.99,,,0.00,Acu-Link.com,2014-04-18 13:31:00,
2014-04-18 06:46:00,45.7,43.8,29.78,West,270,0.0,-999.0,93,-99.99,,,0.00,Acu-Link.com,2014-04-18 13:46:00,
2014-04-18 07:01:00,45.9,44.0,29.78,NNW,337,0.0,-999.0,93,-99.99,,,0.00,Acu-Link.com,2014-04-18 14:01:00,
2014-04-18 07:16:00,46.6,44.7,29.79,SW,225,0.0,-999.0,93,-99.99,,,0.00,Acu-Link.com,2014-04-18 14:16:00,
2014-04-18 07:31:00,48.0,46.4,29.80,NE,45,1.7,-999.0,94,-99.99,,,0.00,Acu-Link.com,2014-04-18 14:31:00,
2014-04-18 07:47:00,50.0,48.3,29.81,West,270,0.0,-999.0,94,-99.99,,,0.00,Acu-Link.com,2014-04-18 14:47:00,
2014-04-18 08:02:00,55.8,53.2,29.82,East,90,0.0,-999.0,91,-99.99,,,0.00,Acu-Link.com,2014-04-18 15:02:00,
2014-04-18 08:17:00,59.9,52.3,29.82,NNE,22,0.0,-999.0,76,-99.99,,,0.00,Acu-Link.com,2014-04-18 15:17:00,
2014-04-18 08:32:00,64.2,53.4,29.82,ESE,112,3.7,-999.0,68,-99.99,,,0.00,Acu-Link.com,2014-04-18 15:32:00,
2014-04-18 08:47:00,64.0,50.3,29.81,ESE,112,1.1,-999.0,61,-99.99,,,0.00,Acu-Link.com,2014-04-18 15:47:00,
2014-04-18 09:02:00,62.1,51.4,29.81,ESE,112,2.2,-999.0,68,-99.99,,,0.00,Acu-Link.com,2014-04-18 16:02:00,
2014-04-18 09:17:00,63.0,50.6,29.81,SE,135,3.7,-999.0,64,-99.99,,,0.00,Acu-Link.com,2014-04-18 16:17:00,
2014-04-18 09:32:00,65.7,52.8,29.81,ESE,112,0.0,-999.0,63,-99.99,,,0.00,Acu-Link.com,2014-04-18 16:32:00,
2014-04-18 09:47:00,64.8,51.5,29.81,SE,135,0.0,-999.0,62,-99.99,,,0.00,Acu-Link.com,2014-04-18 16:47:00,
2014-04-18 10:03:00,67.3,52.0,29.81,SW,225,2.7,-999.0,58,-99.99,,,0.00,Acu-Link.com,2014-04-18 17:03:00,
2014-04-18 10:18:00,68.5,52.2,29.80,SW,225,0.0,-999.0,56,-99.99,,,0.00,Acu-Link.com,2014-04-18 17:18:00,
2014-04-18 10:33:00,70.9,53.4,29.81,ESE,112,3.7,-999.0,54,-99.99,,,0.00,Acu-Link.com,2014-04-18 17:33:00,
2014-04-18 10:48:00,72.1,53.5,29.81,SSW,202,1.7,-999.0,52,-99.99,,,0.00,Acu-Link.com,2014-04-18 17:48:00,
2014-04-18 11:03:00,72.3,54.2,29.81,ESE,112,4.7,-999.0,53,-99.99,,,0.00,Acu-Link.com,2014-04-18 18:03:00,
2014-04-18 11:18:00,73.2,55.0,29.80,NNE,22,3.7,-999.0,53,-99.99,,,0.00,Acu-Link.com,2014-04-18 18:18:00,
2014-04-18 11:33:00,72.7,56.1,29.80,East,90,2.2,-999.0,56,-99.99,,,0.00,Acu-Link.com,2014-04-18 18:33:00,
2014-04-18 11:48:00,73.9,57.2,29.80,SSE,157,2.7,-999.0,56,-99.99,,,0.00,Acu-Link.com,2014-04-18 18:48:00,
2014-04-18 12:03:00,75.0,57.7,29.79,NE,45,4.7,-999.0,55,-99.99,,,0.00,Acu-Link.com,2014-04-18 19:03:00,
2014-04-18 12:19:00,74.1,56.4,29.79,East,90,5.3,-999.0,54,-99.99,,,0.00,Acu-Link.com,2014-04-18 19:19:00,
2014-04-18 12:34:00,74.5,56.7,29.78,NNE,22,2.7,-999.0,54,-99.99,,,0.00,Acu-Link.com,2014-04-18 19:34:00,
2014-04-18 12:49:00,75.4,55.5,29.78,SW,225,2.7,-999.0,50,-99.99,,,0.00,Acu-Link.com,2014-04-18 19:49:00,
2014-04-18 13:04:00,73.6,53.2,29.77,SW,225,5.3,-999.0,49,-99.99,,,0.00,Acu-Link.com,2014-04-18 20:04:00,
2014-04-18 13:19:00,73.6,52.7,29.77,WSW,247,8.3,-999.0,48,-99.99,,,0.00,Acu-Link.com,2014-04-18 20:19:00,